sensor_id;sensor_type;location;lat;lon;timestamp;temperature;humidity
17619;DHT22;8928;51.678;6.074;2023-05-14T06:19:13;14.10;99.90
17619;DHT22;8928;51.678;6.074;2023-05-14T06:22:01;14.10;99.90
17619;DHT22;8928;51.678;6.074;2023-05-14T06:24:48;14.30;99.90
17619;DHT22;8928;51.678;6.074;2023-05-14T06:27:35;14.30;99.90
17619;DHT22;8928;51.678;6.074;2023-05-14T06:30:22;14.40;99.90
17619;DHT22;8928;51.678;6.074;2023-05-14T06:33:09;14.40;99.90
17619;DHT22;8928;51.678;6.074;2023-05-14T06:36:02;14.50;99.90
17619;DHT22;8928;51.678;6.074;2023-05-14T06:38:49;14.60;99.90
17619;DHT22;8928;51.678;6.074;2023-05-14T06:41:36;14.70;99.90
17619;DHT22;8928;51.678;6.074;2023-05-14T06:44:23;14.80;99.90
17619;DHT22;8928;51.678;6.074;2023-05-14T06:47:10;14.90;99.90
17619;DHT22;8928;51.678;6.074;2023-05-14T06:49:57;14.90;99.90
17619;DHT22;8928;51.678;6.074;2023-05-14T06:52:47;15.00;99.90
17619;DHT22;8928;51.678;6.074;2023-05-14T06:55:34;15.00;99.90
17619;DHT22;8928;51.678;6.074;2023-05-14T06:58:21;15.10;99.90
17619;DHT22;8928;51.678;6.074;2023-05-14T07:01:08;15.30;99.90
17619;DHT22;8928;51.678;6.074;2023-05-14T07:03:56;15.40;99.90
17619;DHT22;8928;51.678;6.074;2023-05-14T07:06:43;15.60;99.90
17619;DHT22;8928;51.678;6.074;2023-05-14T07:09:32;15.70;99.90
17619;DHT22;8928;51.678;6.074;2023-05-14T07:12:19;15.90;99.90
17619;DHT22;8928;51.678;6.074;2023-05-14T07:15:07;16.00;99.90
17619;DHT22;8928;51.678;6.074;2023-05-14T07:17:54;16.20;99.90
17619;DHT22;8928;51.678;6.074;2023-05-14T07:20:41;16.40;99.90
17619;DHT22;8928;51.678;6.074;2023-05-14T07:23:28;16.40;99.90
17619;DHT22;8928;51.678;6.074;2023-05-14T07:26:17;16.50;99.90
17619;DHT22;8928;51.678;6.074;2023-05-14T07:29:04;16.70;99.90
17619;DHT22;8928;51.678;6.074;2023-05-14T07:31:51;16.90;99.90
17619;DHT22;8928;51.678;6.074;2023-05-14T07:34:38;17.10;99.90
17619;DHT22;8928;51.678;6.074;2023-05-14T07:37:25;17.20;99.90
17619;DHT22;8928;51.678;6.074;2023-05-14T07:40:12;17.20;99.90
17619;DHT22;8928;51.678;6.074;2023-05-14T07:43:00;17.10;99.90
17619;DHT22;8928;51.678;6.074;2023-05-14T07:45:48;17.20;99.90
17619;DHT22;8928;51.678;6.074;2023-05-14T07:48:35;17.20;99.90
17619;DHT22;8928;51.678;6.074;2023-05-14T07:51:23;17.40;99.90
17619;DHT22;8928;51.678;6.074;2023-05-14T07:54:12;17.50;99.90
17619;DHT22;8928;51.678;6.074;2023-05-14T07:57:00;17.50;99.90
17619;DHT22;8928;51.678;6.074;2023-05-14T07:59:48;17.50;99.90
17619;DHT22;8928;51.678;6.074;2023-05-14T08:02:35;17.60;99.90
17619;DHT22;8928;51.678;6.074;2023-05-14T08:05:22;17.80;99.90
17619;DHT22;8928;51.678;6.074;2023-05-14T08:08:09;18.00;99.90
17619;DHT22;8928;51.678;6.074;2023-05-14T08:10:57;18.30;99.90
17619;DHT22;8928;51.678;6.074;2023-05-14T08:13:44;18.50;99.90
17619;DHT22;8928;51.678;6.074;2023-05-14T08:16:32;18.60;99.90
17619;DHT22;8928;51.678;6.074;2023-05-14T08:19:19;18.70;99.90
17619;DHT22;8928;51.678;6.074;2023-05-14T08:22:06;19.00;99.90
17619;DHT22;8928;51.678;6.074;2023-05-14T08:24:53;19.30;99.90
17619;DHT22;8928;51.678;6.074;2023-05-14T08:27:40;19.30;99.90
17619;DHT22;8928;51.678;6.074;2023-05-14T08:30:27;19.40;99.90
17619;DHT22;8928;51.678;6.074;2023-05-14T08:33:16;19.30;99.90
17619;DHT22;8928;51.678;6.074;2023-05-14T08:36:04;19.40;99.90
17619;DHT22;8928;51.678;6.074;2023-05-14T08:38:52;19.60;99.90
17619;DHT22;8928;51.678;6.074;2023-05-14T08:41:39;19.70;99.90
17619;DHT22;8928;51.678;6.074;2023-05-14T08:44:33;19.70;99.90
17619;DHT22;8928;51.678;6.074;2023-05-14T08:47:22;20.00;99.90
17619;DHT22;8928;51.678;6.074;2023-05-14T08:50:11;20.10;99.90
17619;DHT22;8928;51.678;6.074;2023-05-14T08:52:58;20.20;99.90
17619;DHT22;8928;51.678;6.074;2023-05-14T08:55:45;20.40;99.90
17619;DHT22;8928;51.678;6.074;2023-05-14T08:58:33;20.40;99.90
17619;DHT22;8928;51.678;6.074;2023-05-14T09:01:20;20.80;99.90
17619;DHT22;8928;51.678;6.074;2023-05-14T09:04:08;20.80;99.90
17619;DHT22;8928;51.678;6.074;2023-05-14T09:06:59;20.80;99.90
17619;DHT22;8928;51.678;6.074;2023-05-14T09:09:47;20.90;99.90
17619;DHT22;8928;51.678;6.074;2023-05-14T09:12:34;21.40;99.90
17619;DHT22;8928;51.678;6.074;2023-05-14T09:15:22;21.70;99.90
17619;DHT22;8928;51.678;6.074;2023-05-14T09:18:12;22.00;99.90
17619;DHT22;8928;51.678;6.074;2023-05-14T09:20:59;22.00;99.90
17619;DHT22;8928;51.678;6.074;2023-05-14T09:23:52;22.00;99.90
17619;DHT22;8928;51.678;6.074;2023-05-14T09:26:40;22.10;99.90
17619;DHT22;8928;51.678;6.074;2023-05-14T09:29:28;22.20;99.90
17619;DHT22;8928;51.678;6.074;2023-05-14T09:32:15;22.30;99.90
17619;DHT22;8928;51.678;6.074;2023-05-14T09:35:12;22.40;99.90
17619;DHT22;8928;51.678;6.074;2023-05-14T09:38:01;22.50;99.90
17619;DHT22;8928;51.678;6.074;2023-05-14T09:40:50;22.40;99.90
17619;DHT22;8928;51.678;6.074;2023-05-14T09:43:37;22.60;99.90
17619;DHT22;8928;51.678;6.074;2023-05-14T09:46:24;22.90;99.90
17619;DHT22;8928;51.678;6.074;2023-05-14T09:49:15;22.40;99.90
17619;DHT22;8928;51.678;6.074;2023-05-14T09:52:02;22.60;99.90
17619;DHT22;8928;51.678;6.074;2023-05-14T09:54:52;23.00;99.90
17619;DHT22;8928;51.678;6.074;2023-05-14T09:57:41;23.30;99.90
17619;DHT22;8928;51.678;6.074;2023-05-14T10:00:28;23.60;99.90
17619;DHT22;8928;51.678;6.074;2023-05-14T10:03:15;23.80;99.90
17619;DHT22;8928;51.678;6.074;2023-05-14T10:06:05;24.10;99.90
17619;DHT22;8928;51.678;6.074;2023-05-14T10:08:55;24.50;99.90
17619;DHT22;8928;51.678;6.074;2023-05-14T10:11:43;25.00;99.90
17619;DHT22;8928;51.678;6.074;2023-05-14T10:14:39;24.70;99.90
17619;DHT22;8928;51.678;6.074;2023-05-14T10:17:31;24.30;99.90
17619;DHT22;8928;51.678;6.074;2023-05-14T10:20:20;24.20;99.90
17619;DHT22;8928;51.678;6.074;2023-05-14T10:23:08;24.30;99.90
17619;DHT22;8928;51.678;6.074;2023-05-14T10:25:55;24.70;99.90
17619;DHT22;8928;51.678;6.074;2023-05-14T10:28:43;25.20;99.90
17619;DHT22;8928;51.678;6.074;2023-05-14T10:31:48;25.60;99.90
17619;DHT22;8928;51.678;6.074;2023-05-14T10:34:37;25.90;99.90
17619;DHT22;8928;51.678;6.074;2023-05-14T10:37:25;25.90;99.90
17619;DHT22;8928;51.678;6.074;2023-05-14T10:40:13;26.20;99.90
17619;DHT22;8928;51.678;6.074;2023-05-14T10:43:01;26.30;99.90
17619;DHT22;8928;51.678;6.074;2023-05-14T10:45:50;26.40;99.90
17619;DHT22;8928;51.678;6.074;2023-05-14T10:48:41;26.90;99.90
17619;DHT22;8928;51.678;6.074;2023-05-14T10:51:29;27.10;99.90
17619;DHT22;8928;51.678;6.074;2023-05-14T10:54:17;27.30;99.90
17619;DHT22;8928;51.678;6.074;2023-05-14T10:57:09;27.60;99.90
17619;DHT22;8928;51.678;6.074;2023-05-14T10:59:58;27.70;99.90
17619;DHT22;8928;51.678;6.074;2023-05-14T11:02:45;27.40;99.90
17619;DHT22;8928;51.678;6.074;2023-05-14T11:05:33;27.40;99.90
17619;DHT22;8928;51.678;6.074;2023-05-14T11:08:22;27.20;99.90
17619;DHT22;8928;51.678;6.074;2023-05-14T11:11:11;27.10;99.90
17619;DHT22;8928;51.678;6.074;2023-05-14T11:13:59;27.00;99.90
17619;DHT22;8928;51.678;6.074;2023-05-14T11:16:46;27.00;99.90
17619;DHT22;8928;51.678;6.074;2023-05-14T11:19:33;27.30;99.90
17619;DHT22;8928;51.678;6.074;2023-05-14T11:22:22;27.50;99.90
17619;DHT22;8928;51.678;6.074;2023-05-14T11:25:10;28.10;99.90
17619;DHT22;8928;51.678;6.074;2023-05-14T11:27:59;28.50;99.90
17619;DHT22;8928;51.678;6.074;2023-05-14T11:30:46;28.80;99.90
17619;DHT22;8928;51.678;6.074;2023-05-14T11:33:34;28.60;99.90
17619;DHT22;8928;51.678;6.074;2023-05-14T11:36:21;28.50;99.90
17619;DHT22;8928;51.678;6.074;2023-05-14T11:39:16;28.80;99.90
17619;DHT22;8928;51.678;6.074;2023-05-14T11:42:06;29.50;97.40
17619;DHT22;8928;51.678;6.074;2023-05-14T11:44:58;30.10;95.60
17619;DHT22;8928;51.678;6.074;2023-05-14T11:47:46;30.40;93.40
17619;DHT22;8928;51.678;6.074;2023-05-14T11:50:34;30.00;90.80
17619;DHT22;8928;51.678;6.074;2023-05-14T11:53:25;29.80;92.10
17619;DHT22;8928;51.678;6.074;2023-05-14T11:56:13;30.00;89.50
17619;DHT22;8928;51.678;6.074;2023-05-14T11:59:00;30.00;90.00
17619;DHT22;8928;51.678;6.074;2023-05-14T12:01:47;30.30;87.90
17619;DHT22;8928;51.678;6.074;2023-05-14T12:04:36;30.70;80.20
17619;DHT22;8928;51.678;6.074;2023-05-14T12:07:27;31.00;77.00
17619;DHT22;8928;51.678;6.074;2023-05-14T12:10:15;30.30;73.20
17619;DHT22;8928;51.678;6.074;2023-05-14T12:13:06;29.30;73.40
17619;DHT22;8928;51.678;6.074;2023-05-14T12:15:54;28.30;71.10
17619;DHT22;8928;51.678;6.074;2023-05-14T12:18:42;27.70;73.10
17619;DHT22;8928;51.678;6.074;2023-05-14T12:21:29;27.60;76.60
17619;DHT22;8928;51.678;6.074;2023-05-14T12:24:17;28.00;72.40
17619;DHT22;8928;51.678;6.074;2023-05-14T12:27:06;27.40;68.50
17619;DHT22;8928;51.678;6.074;2023-05-14T12:29:59;26.70;68.10
17619;DHT22;8928;51.678;6.074;2023-05-14T12:32:48;26.30;72.60
17619;DHT22;8928;51.678;6.074;2023-05-14T12:35:36;25.70;68.20
17619;DHT22;8928;51.678;6.074;2023-05-14T12:38:24;25.40;69.80
17619;DHT22;8928;51.678;6.074;2023-05-14T12:41:11;25.30;76.90
17619;DHT22;8928;51.678;6.074;2023-05-14T12:43:58;25.20;72.90
17619;DHT22;8928;51.678;6.074;2023-05-14T12:46:47;25.80;75.00
17619;DHT22;8928;51.678;6.074;2023-05-14T12:49:34;26.00;68.80
17619;DHT22;8928;51.678;6.074;2023-05-14T12:52:21;26.00;68.50
17619;DHT22;8928;51.678;6.074;2023-05-14T12:55:08;26.10;66.90
17619;DHT22;8928;51.678;6.074;2023-05-14T12:57:56;26.00;63.40
17619;DHT22;8928;51.678;6.074;2023-05-14T13:00:43;26.00;64.90
17619;DHT22;8928;51.678;6.074;2023-05-14T13:03:31;25.70;64.30
17619;DHT22;8928;51.678;6.074;2023-05-14T15:10:42;27.00;57.80
17619;DHT22;8928;51.678;6.074;2023-05-14T15:13:29;27.20;61.90
17619;DHT22;8928;51.678;6.074;2023-05-14T15:16:16;27.10;61.00
17619;DHT22;8928;51.678;6.074;2023-05-14T15:19:04;27.30;63.50
17619;DHT22;8928;51.678;6.074;2023-05-14T15:21:51;27.70;63.80
17619;DHT22;8928;51.678;6.074;2023-05-14T15:24:38;27.60;63.10
17619;DHT22;8928;51.678;6.074;2023-05-14T15:27:29;27.70;58.80
17619;DHT22;8928;51.678;6.074;2023-05-14T15:30:16;27.60;57.50
17619;DHT22;8928;51.678;6.074;2023-05-14T15:33:06;26.90;57.80
17619;DHT22;8928;51.678;6.074;2023-05-14T15:35:53;26.40;59.10
17619;DHT22;8928;51.678;6.074;2023-05-14T15:38:40;26.00;59.20
17619;DHT22;8928;51.678;6.074;2023-05-14T15:41:27;26.20;58.10
17619;DHT22;8928;51.678;6.074;2023-05-14T15:44:17;26.40;58.80
17619;DHT22;8928;51.678;6.074;2023-05-14T15:47:04;26.60;62.50
17619;DHT22;8928;51.678;6.074;2023-05-14T15:49:51;26.70;63.10
17619;DHT22;8928;51.678;6.074;2023-05-14T15:52:39;27.40;63.70
17619;DHT22;8928;51.678;6.074;2023-05-14T15:55:26;27.40;61.30
17619;DHT22;8928;51.678;6.074;2023-05-14T15:58:13;27.50;63.50
17619;DHT22;8928;51.678;6.074;2023-05-14T16:01:01;27.40;60.40
17619;DHT22;8928;51.678;6.074;2023-05-14T16:03:48;27.20;62.20
17619;DHT22;8928;51.678;6.074;2023-05-14T16:06:35;26.70;61.80
17619;DHT22;8928;51.678;6.074;2023-05-14T16:09:26;26.50;65.20
17619;DHT22;8928;51.678;6.074;2023-05-14T16:12:13;26.40;62.30
17619;DHT22;8928;51.678;6.074;2023-05-14T16:15:00;26.00;63.80
17619;DHT22;8928;51.678;6.074;2023-05-14T16:17:49;26.20;66.90
17619;DHT22;8928;51.678;6.074;2023-05-14T16:20:36;26.30;63.00
17619;DHT22;8928;51.678;6.074;2023-05-14T16:23:23;26.40;61.70
17619;DHT22;8928;51.678;6.074;2023-05-14T16:26:10;26.20;64.00
17619;DHT22;8928;51.678;6.074;2023-05-14T16:28:57;25.90;65.30
17619;DHT22;8928;51.678;6.074;2023-05-14T16:31:44;25.30;66.40
17619;DHT22;8928;51.678;6.074;2023-05-14T16:34:32;24.50;68.60
17619;DHT22;8928;51.678;6.074;2023-05-14T16:37:19;24.10;72.20
17619;DHT22;8928;51.678;6.074;2023-05-14T16:40:07;23.60;73.30
17619;DHT22;8928;51.678;6.074;2023-05-14T16:42:56;23.20;75.60
17619;DHT22;8928;51.678;6.074;2023-05-14T16:45:43;23.00;78.20
17619;DHT22;8928;51.678;6.074;2023-05-14T16:48:30;22.60;78.70
17619;DHT22;8928;51.678;6.074;2023-05-14T16:51:18;22.50;83.20
17619;DHT22;8928;51.678;6.074;2023-05-14T16:54:05;22.20;80.70
17619;DHT22;8928;51.678;6.074;2023-05-14T16:56:52;22.00;82.40
17619;DHT22;8928;51.678;6.074;2023-05-14T16:59:39;22.00;84.20
17619;DHT22;8928;51.678;6.074;2023-05-14T17:02:26;21.90;85.90
17619;DHT22;8928;51.678;6.074;2023-05-14T17:05:14;21.80;85.80
17619;DHT22;8928;51.678;6.074;2023-05-14T17:08:02;21.70;89.40
17619;DHT22;8928;51.678;6.074;2023-05-14T17:10:50;21.60;90.60
17619;DHT22;8928;51.678;6.074;2023-05-14T17:13:37;21.50;90.90
17619;DHT22;8928;51.678;6.074;2023-05-14T17:16:24;21.40;91.50
17619;DHT22;8928;51.678;6.074;2023-05-14T17:19:11;21.30;93.30
17619;DHT22;8928;51.678;6.074;2023-05-14T17:21:58;21.20;94.20
17619;DHT22;8928;51.678;6.074;2023-05-14T17:24:47;21.20;96.10
17619;DHT22;8928;51.678;6.074;2023-05-14T17:27:34;21.10;97.10
17619;DHT22;8928;51.678;6.074;2023-05-14T17:30:21;21.00;98.40
17619;DHT22;8928;51.678;6.074;2023-05-14T17:33:08;20.90;99.90
17619;DHT22;8928;51.678;6.074;2023-05-14T17:35:56;20.80;99.90
17619;DHT22;8928;51.678;6.074;2023-05-14T17:38:43;20.70;99.90
17619;DHT22;8928;51.678;6.074;2023-05-14T17:41:31;20.60;99.90
17619;DHT22;8928;51.678;6.074;2023-05-14T17:44:18;20.50;99.90
17619;DHT22;8928;51.678;6.074;2023-05-14T17:47:05;20.40;99.90
17619;DHT22;8928;51.678;6.074;2023-05-14T17:49:53;20.30;99.90
17619;DHT22;8928;51.678;6.074;2023-05-14T17:52:40;20.30;99.90
17619;DHT22;8928;51.678;6.074;2023-05-14T17:55:28;20.10;99.90
17619;DHT22;8928;51.678;6.074;2023-05-14T17:58:17;20.00;99.90
17619;DHT22;8928;51.678;6.074;2023-05-14T18:01:04;19.80;99.90
17619;DHT22;8928;51.678;6.074;2023-05-14T18:03:51;19.80;99.90
17619;DHT22;8928;51.678;6.074;2023-05-14T18:06:38;19.70;99.90
17619;DHT22;8928;51.678;6.074;2023-05-14T18:09:25;19.50;99.90
17619;DHT22;8928;51.678;6.074;2023-05-14T18:12:12;19.40;99.90
17619;DHT22;8928;51.678;6.074;2023-05-14T18:15:01;19.30;99.90
17619;DHT22;8928;51.678;6.074;2023-05-14T18:17:48;19.20;99.90
17619;DHT22;8928;51.678;6.074;2023-05-14T18:20:35;19.10;99.90
17619;DHT22;8928;51.678;6.074;2023-05-14T18:23:22;19.00;99.90
17619;DHT22;8928;51.678;6.074;2023-05-14T18:26:09;18.90;99.90
17619;DHT22;8928;51.678;6.074;2023-05-14T18:28:56;18.90;99.90
17619;DHT22;8928;51.678;6.074;2023-05-14T18:31:45;18.80;99.90
17619;DHT22;8928;51.678;6.074;2023-05-14T18:34:32;18.70;99.90
17619;DHT22;8928;51.678;6.074;2023-05-14T18:37:19;18.50;99.90
17619;DHT22;8928;51.678;6.074;2023-05-14T18:40:07;18.40;99.90
17619;DHT22;8928;51.678;6.074;2023-05-14T18:42:54;18.30;99.90
17619;DHT22;8928;51.678;6.074;2023-05-14T18:45:43;18.30;99.90
17619;DHT22;8928;51.678;6.074;2023-05-14T18:48:32;18.20;99.90
17619;DHT22;8928;51.678;6.074;2023-05-14T18:51:19;18.10;99.90
17619;DHT22;8928;51.678;6.074;2023-05-14T18:54:06;18.00;99.90
17619;DHT22;8928;51.678;6.074;2023-05-14T18:56:53;17.90;99.90
17619;DHT22;8928;51.678;6.074;2023-05-14T18:59:40;17.90;99.90
17619;DHT22;8928;51.678;6.074;2023-05-14T19:02:27;17.80;99.90
17619;DHT22;8928;51.678;6.074;2023-05-14T19:05:16;17.70;99.90
17619;DHT22;8928;51.678;6.074;2023-05-14T19:08:03;17.60;99.90
17619;DHT22;8928;51.678;6.074;2023-05-14T19:10:50;17.50;99.90
17619;DHT22;8928;51.678;6.074;2023-05-14T19:13:37;17.40;99.90
17619;DHT22;8928;51.678;6.074;2023-05-14T19:16:24;17.30;99.90
17619;DHT22;8928;51.678;6.074;2023-05-14T19:19:11;17.30;99.90
17619;DHT22;8928;51.678;6.074;2023-05-14T19:22:00;17.20;99.90
17619;DHT22;8928;51.678;6.074;2023-05-14T19:24:47;17.10;99.90
17619;DHT22;8928;51.678;6.074;2023-05-14T19:27:35;17.00;99.90
17619;DHT22;8928;51.678;6.074;2023-05-14T19:30:23;17.00;99.90
17619;DHT22;8928;51.678;6.074;2023-05-14T19:33:10;16.90;99.90
17619;DHT22;8928;51.678;6.074;2023-05-14T19:35:57;16.90;99.90
17619;DHT22;8928;51.678;6.074;2023-05-14T19:38:45;16.80;99.90
17619;DHT22;8928;51.678;6.074;2023-05-14T19:41:32;16.70;99.90
17619;DHT22;8928;51.678;6.074;2023-05-14T19:44:19;16.70;99.90
17619;DHT22;8928;51.678;6.074;2023-05-14T19:47:06;16.60;99.90
17619;DHT22;8928;51.678;6.074;2023-05-14T19:49:53;16.50;99.90
17619;DHT22;8928;51.678;6.074;2023-05-14T19:52:40;16.50;99.90
17619;DHT22;8928;51.678;6.074;2023-05-14T19:55:29;16.40;99.90
17619;DHT22;8928;51.678;6.074;2023-05-14T19:58:16;16.30;99.90
17619;DHT22;8928;51.678;6.074;2023-05-14T20:01:03;16.30;99.90
17619;DHT22;8928;51.678;6.074;2023-05-14T20:03:50;16.30;99.90
17619;DHT22;8928;51.678;6.074;2023-05-14T20:06:37;16.20;99.90
17619;DHT22;8928;51.678;6.074;2023-05-14T20:09:25;16.20;99.90
17619;DHT22;8928;51.678;6.074;2023-05-14T20:12:13;16.10;99.90
17619;DHT22;8928;51.678;6.074;2023-05-14T20:15:01;16.10;99.90
17619;DHT22;8928;51.678;6.074;2023-05-14T20:17:49;16.00;99.90
17619;DHT22;8928;51.678;6.074;2023-05-14T20:20:36;16.00;99.90
17619;DHT22;8928;51.678;6.074;2023-05-14T20:23:24;15.90;99.90
17619;DHT22;8928;51.678;6.074;2023-05-14T20:26:11;15.90;99.90
17619;DHT22;8928;51.678;6.074;2023-05-14T20:29:00;15.80;99.90
17619;DHT22;8928;51.678;6.074;2023-05-14T20:31:47;15.70;99.90
17619;DHT22;8928;51.678;6.074;2023-05-14T20:34:34;15.70;99.90
17619;DHT22;8928;51.678;6.074;2023-05-14T20:37:21;15.60;99.90
17619;DHT22;8928;51.678;6.074;2023-05-14T20:40:09;15.50;99.90
17619;DHT22;8928;51.678;6.074;2023-05-14T20:42:57;15.40;99.90
17619;DHT22;8928;51.678;6.074;2023-05-14T20:45:45;15.40;99.90
17619;DHT22;8928;51.678;6.074;2023-05-14T20:48:32;15.30;99.90
17619;DHT22;8928;51.678;6.074;2023-05-14T20:51:19;15.30;99.90
17619;DHT22;8928;51.678;6.074;2023-05-14T20:54:06;15.20;99.90
17619;DHT22;8928;51.678;6.074;2023-05-14T20:56:53;15.10;99.90
17619;DHT22;8928;51.678;6.074;2023-05-14T20:59:40;15.10;99.90
17619;DHT22;8928;51.678;6.074;2023-05-14T21:02:29;15.00;99.90
17619;DHT22;8928;51.678;6.074;2023-05-14T21:05:16;14.90;99.90
17619;DHT22;8928;51.678;6.074;2023-05-14T21:08:04;14.90;99.90
17619;DHT22;8928;51.678;6.074;2023-05-14T21:10:51;14.80;99.90
17619;DHT22;8928;51.678;6.074;2023-05-14T21:13:38;14.70;99.90
17619;DHT22;8928;51.678;6.074;2023-05-14T21:16:25;14.60;99.90
17619;DHT22;8928;51.678;6.074;2023-05-14T21:19:13;14.50;99.90
17619;DHT22;8928;51.678;6.074;2023-05-14T21:22:01;14.50;99.90
17619;DHT22;8928;51.678;6.074;2023-05-14T21:24:49;14.40;99.90
17619;DHT22;8928;51.678;6.074;2023-05-14T21:27:36;14.40;99.90
17619;DHT22;8928;51.678;6.074;2023-05-14T21:30:23;14.30;99.90
17619;DHT22;8928;51.678;6.074;2023-05-14T21:33:10;14.30;99.90
17619;DHT22;8928;51.678;6.074;2023-05-14T21:35:58;14.20;99.90
17619;DHT22;8928;51.678;6.074;2023-05-14T21:38:46;14.10;99.90
17619;DHT22;8928;51.678;6.074;2023-05-14T21:41:33;14.10;99.90
17619;DHT22;8928;51.678;6.074;2023-05-14T21:44:20;14.00;99.90
17619;DHT22;8928;51.678;6.074;2023-05-14T21:47:07;13.90;99.90
17619;DHT22;8928;51.678;6.074;2023-05-14T21:49:54;13.90;99.90
17619;DHT22;8928;51.678;6.074;2023-05-14T21:52:42;13.90;99.90
17619;DHT22;8928;51.678;6.074;2023-05-14T21:55:30;13.80;99.90
17619;DHT22;8928;51.678;6.074;2023-05-14T21:58:17;13.70;99.90
17619;DHT22;8928;51.678;6.074;2023-05-14T22:01:04;13.70;99.90
17619;DHT22;8928;51.678;6.074;2023-05-14T22:03:52;13.70;99.90
17619;DHT22;8928;51.678;6.074;2023-05-14T22:06:39;13.60;99.90
17619;DHT22;8928;51.678;6.074;2023-05-14T22:09:28;13.60;99.90
17619;DHT22;8928;51.678;6.074;2023-05-14T22:12:15;13.50;99.90
17619;DHT22;8928;51.678;6.074;2023-05-14T22:15:03;13.40;99.90
17619;DHT22;8928;51.678;6.074;2023-05-14T22:17:50;13.30;99.90
17619;DHT22;8928;51.678;6.074;2023-05-14T22:20:37;13.20;99.90
17619;DHT22;8928;51.678;6.074;2023-05-14T22:23:24;13.20;99.90
17619;DHT22;8928;51.678;6.074;2023-05-14T22:26:13;13.20;99.90
17619;DHT22;8928;51.678;6.074;2023-05-14T22:29:00;13.10;99.90
17619;DHT22;8928;51.678;6.074;2023-05-14T22:31:47;13.10;99.90
17619;DHT22;8928;51.678;6.074;2023-05-14T22:34:34;13.10;99.90
17619;DHT22;8928;51.678;6.074;2023-05-14T22:37:21;13.10;99.90
17619;DHT22;8928;51.678;6.074;2023-05-14T22:40:09;13.00;99.90
17619;DHT22;8928;51.678;6.074;2023-05-14T22:42:59;13.00;99.90
17619;DHT22;8928;51.678;6.074;2023-05-14T22:45:46;13.00;99.90
17619;DHT22;8928;51.678;6.074;2023-05-14T22:48:33;12.90;99.90
17619;DHT22;8928;51.678;6.074;2023-05-14T22:51:20;12.80;99.90
17619;DHT22;8928;51.678;6.074;2023-05-14T22:54:08;12.80;99.90
17619;DHT22;8928;51.678;6.074;2023-05-14T22:56:55;12.70;99.90
17619;DHT22;8928;51.678;6.074;2023-05-14T22:59:44;12.60;99.90
17619;DHT22;8928;51.678;6.074;2023-05-14T23:02:31;12.60;99.90
17619;DHT22;8928;51.678;6.074;2023-05-14T23:05:18;12.50;99.90
17619;DHT22;8928;51.678;6.074;2023-05-14T23:08:05;12.40;99.90
17619;DHT22;8928;51.678;6.074;2023-05-14T23:10:52;12.30;99.90
17619;DHT22;8928;51.678;6.074;2023-05-14T23:13:39;12.30;99.90
17619;DHT22;8928;51.678;6.074;2023-05-14T23:16:28;12.20;99.90
17619;DHT22;8928;51.678;6.074;2023-05-14T23:19:15;12.20;99.90
17619;DHT22;8928;51.678;6.074;2023-05-14T23:22:02;12.10;99.90
17619;DHT22;8928;51.678;6.074;2023-05-14T23:24:49;12.00;99.90
17619;DHT22;8928;51.678;6.074;2023-05-14T23:27:36;12.00;99.90
17619;DHT22;8928;51.678;6.074;2023-05-14T23:30:23;11.90;99.90
17619;DHT22;8928;51.678;6.074;2023-05-14T23:33:12;11.90;99.90
17619;DHT22;8928;51.678;6.074;2023-05-14T23:35:59;11.90;99.90
17619;DHT22;8928;51.678;6.074;2023-05-14T23:38:46;11.90;99.90
17619;DHT22;8928;51.678;6.074;2023-05-14T23:41:33;11.80;99.90
17619;DHT22;8928;51.678;6.074;2023-05-14T23:44:20;11.80;99.90
17619;DHT22;8928;51.678;6.074;2023-05-14T23:47:08;11.70;99.90
17619;DHT22;8928;51.678;6.074;2023-05-14T23:49:57;11.70;99.90
17619;DHT22;8928;51.678;6.074;2023-05-14T23:52:44;11.60;99.90
17619;DHT22;8928;51.678;6.074;2023-05-14T23:55:31;11.50;99.90
17619;DHT22;8928;51.678;6.074;2023-05-14T23:58:18;11.50;99.90
